createdAt,value
2022-11-14T00:00:27.768Z,26.70
2022-11-14T00:01:27.751Z,25.50
2022-11-14T00:02:27.785Z,25.60
2022-11-14T00:03:27.755Z,26.60
2022-11-14T00:04:29.650Z,25.60
2022-11-14T00:05:27.706Z,25.30
2022-11-14T00:06:27.709Z,25.30
2022-11-14T00:07:27.755Z,27.30
2022-11-14T00:08:28.176Z,25.00
2022-11-14T00:09:27.678Z,27.00
2022-11-14T00:10:27.655Z,25.40
2022-11-14T00:11:27.641Z,26.50
2022-11-14T00:12:27.631Z,26.30
2022-11-14T00:13:27.622Z,25.70
2022-11-14T00:14:27.627Z,26.30
2022-11-14T00:15:27.600Z,26.00
2022-11-14T00:16:27.599Z,25.20
2022-11-14T00:17:27.581Z,26.40
2022-11-14T00:18:27.981Z,26.00
2022-11-14T00:19:27.558Z,25.50
2022-11-14T00:20:27.569Z,25.20
2022-11-14T00:21:27.549Z,25.50
2022-11-14T00:22:27.528Z,26.10
2022-11-14T00:23:27.516Z,26.20
2022-11-14T00:24:27.500Z,27.70
2022-11-14T00:25:27.516Z,25.70
2022-11-14T00:26:27.480Z,26.80
2022-11-14T00:27:27.468Z,27.10
2022-11-14T00:28:27.817Z,26.70
2022-11-14T00:29:27.457Z,27.90
2022-11-14T00:30:27.450Z,26.60
2022-11-14T00:31:27.425Z,27.30
2022-11-14T00:32:27.444Z,26.90
2022-11-14T00:33:27.416Z,24.90
2022-11-14T00:34:27.403Z,25.10
2022-11-14T00:35:35.883Z,27.00
2022-11-14T00:36:27.375Z,24.20
2022-11-14T00:37:27.361Z,26.20
2022-11-14T00:38:27.827Z,24.40
2022-11-14T00:39:27.404Z,26.10
2022-11-14T00:40:27.351Z,26.40
2022-11-14T00:41:27.323Z,25.10
2022-11-14T00:42:27.312Z,28.10
2022-11-14T00:43:27.295Z,26.40
2022-11-14T00:44:27.312Z,26.70
2022-11-14T00:45:27.291Z,27.50
2022-11-14T00:46:27.269Z,27.60
2022-11-14T00:47:27.276Z,27.50
2022-11-14T00:48:27.641Z,27.30
2022-11-14T00:49:27.228Z,27.20
2022-11-14T00:50:27.223Z,27.20
2022-11-14T00:51:27.217Z,26.60
2022-11-14T00:52:27.200Z,25.80
2022-11-14T00:53:27.212Z,27.50
2022-11-14T00:54:27.188Z,26.50
2022-11-14T00:55:27.165Z,26.00
2022-11-14T00:56:27.171Z,26.80
2022-11-14T00:57:27.167Z,26.00
2022-11-14T00:58:27.478Z,27.10
2022-11-14T00:59:27.137Z,27.50
2022-11-14T01:00:27.181Z,26.20
2022-11-14T01:01:27.121Z,27.20
2022-11-14T01:02:27.088Z,26.10
2022-11-14T01:03:27.090Z,28.10
2022-11-14T01:04:27.080Z,26.90
2022-11-14T01:05:27.072Z,26.80
2022-11-14T01:06:27.073Z,26.20
2022-11-14T01:07:27.046Z,26.10
2022-11-14T01:08:27.369Z,27.90
2022-11-14T01:09:27.123Z,27.20
2022-11-14T01:10:27.022Z,26.50
2022-11-14T01:11:27.013Z,26.20
2022-11-14T01:12:27.019Z,25.40
2022-11-14T01:13:26.983Z,25.30
2022-11-14T01:14:26.965Z,25.50
2022-11-14T01:15:26.959Z,26.50
2022-11-14T01:16:26.940Z,27.20
2022-11-14T01:17:26.957Z,27.00
2022-11-14T01:18:27.217Z,25.30
2022-11-14T01:19:26.907Z,27.70
2022-11-14T01:20:26.908Z,26.70
2022-11-14T01:21:26.899Z,27.00
2022-11-14T01:22:26.912Z,25.70
2022-11-14T01:23:26.867Z,26.90
2022-11-14T01:24:26.857Z,26.80
2022-11-14T01:25:26.856Z,26.20
2022-11-14T01:26:26.837Z,25.40
2022-11-14T01:27:26.833Z,26.80
2022-11-14T01:28:27.049Z,26.70
2022-11-14T01:29:26.797Z,26.40
2022-11-14T01:30:26.799Z,25.60
2022-11-14T01:31:26.781Z,26.50
2022-11-14T01:32:26.783Z,25.60
2022-11-14T01:33:26.759Z,26.80
2022-11-14T01:34:26.772Z,25.50
2022-11-14T01:35:34.245Z,26.70
2022-11-14T01:36:26.738Z,26.60
2022-11-14T01:37:26.732Z,26.30
2022-11-14T01:38:26.989Z,25.30
2022-11-14T01:39:26.688Z,24.70
2022-11-14T01:40:26.693Z,26.30
2022-11-14T01:41:26.667Z,26.00
2022-11-14T01:42:27.645Z,25.40
2022-11-14T01:43:26.647Z,26.60
2022-11-14T01:44:26.635Z,26.80
2022-11-14T01:45:26.625Z,26.40
2022-11-14T01:46:26.611Z,25.60
2022-11-14T01:47:26.610Z,27.60
2022-11-14T01:48:26.797Z,25.50
2022-11-14T01:49:26.588Z,26.30
2022-11-14T01:50:26.591Z,26.60
2022-11-14T01:51:26.567Z,26.10
2022-11-14T01:52:26.566Z,26.50
2022-11-14T01:53:26.540Z,25.20
2022-11-14T01:54:26.544Z,24.90
2022-11-14T01:55:26.531Z,25.00
2022-11-14T01:56:26.503Z,24.70
2022-11-14T01:57:26.535Z,25.60
2022-11-14T01:58:26.629Z,26.30
2022-11-14T01:59:26.465Z,25.60
2022-11-14T02:00:26.461Z,26.30
2022-11-14T02:01:26.516Z,26.40
2022-11-14T02:02:26.463Z,25.10
2022-11-14T02:03:26.420Z,27.10
2022-11-14T02:04:26.415Z,25.70
2022-11-14T02:05:26.405Z,27.80
2022-11-14T02:06:26.394Z,25.40
2022-11-14T02:07:26.485Z,25.90
2022-11-14T02:08:26.671Z,28.30
2022-11-14T02:09:26.361Z,25.90
2022-11-14T02:10:26.349Z,25.10
2022-11-14T02:11:26.340Z,25.60
2022-11-14T02:12:26.347Z,25.40
2022-11-14T02:13:26.346Z,25.40
2022-11-14T02:14:26.324Z,25.50
2022-11-14T02:15:26.297Z,26.50
2022-11-14T02:16:26.319Z,24.70
2022-11-14T02:17:30.921Z,26.20
2022-11-14T02:18:26.477Z,26.00
2022-11-14T02:19:26.264Z,26.90
2022-11-14T02:20:26.237Z,27.10
2022-11-14T02:21:26.222Z,25.30
2022-11-14T02:22:26.218Z,25.20
2022-11-14T02:23:26.218Z,24.60
2022-11-14T02:24:26.208Z,25.80
2022-11-14T02:25:26.188Z,26.30
2022-11-14T02:26:26.172Z,24.80
2022-11-14T02:27:26.175Z,26.50
2022-11-14T02:28:26.337Z,26.10
2022-11-14T02:29:26.178Z,25.40
2022-11-14T02:30:26.131Z,24.70
2022-11-14T02:31:26.129Z,24.20
2022-11-14T02:32:26.118Z,26.60
2022-11-14T02:33:26.093Z,25.00
2022-11-14T02:34:26.099Z,25.10
2022-11-14T02:35:34.577Z,26.00
2022-11-14T02:36:26.062Z,23.80
2022-11-14T02:37:26.058Z,23.50
2022-11-14T02:38:26.036Z,25.90
2022-11-14T02:39:26.048Z,24.00
2022-11-14T02:40:26.022Z,24.20
2022-11-14T02:41:26.003Z,24.80
2022-11-14T02:42:25.994Z,26.40
2022-11-14T02:43:25.982Z,24.20
2022-11-14T02:44:26.050Z,25.30
2022-11-14T02:45:25.972Z,25.70
2022-11-14T02:46:25.965Z,25.60
2022-11-14T02:47:25.942Z,25.80
2022-11-14T02:48:25.943Z,23.90
2022-11-14T02:49:25.920Z,24.00
2022-11-14T02:50:25.921Z,24.50
2022-11-14T02:51:25.893Z,24.60
2022-11-14T02:52:25.947Z,25.30
2022-11-14T02:53:25.879Z,26.70
2022-11-14T02:54:25.867Z,24.90
2022-11-14T02:55:25.867Z,24.30
2022-11-14T02:56:25.845Z,25.20
2022-11-14T02:57:25.823Z,26.30
2022-11-14T02:58:25.832Z,24.90
2022-11-14T02:59:25.816Z,23.50
2022-11-14T03:00:25.839Z,25.60
2022-11-14T03:01:25.826Z,25.80
2022-11-14T03:02:25.782Z,25.20
2022-11-14T03:03:25.782Z,26.90
2022-11-14T03:04:25.747Z,24.80
2022-11-14T03:05:25.759Z,25.60
2022-11-14T03:06:25.747Z,25.50
2022-11-14T03:07:25.791Z,26.40
2022-11-14T03:08:25.707Z,24.60
2022-11-14T03:09:25.687Z,26.40
2022-11-14T03:10:25.688Z,25.30
2022-11-14T03:11:25.676Z,26.80
2022-11-14T03:12:25.663Z,25.10
2022-11-14T03:13:25.656Z,25.70
2022-11-14T03:14:25.634Z,24.00
2022-11-14T03:15:25.623Z,25.20
2022-11-14T03:16:25.625Z,25.40
2022-11-14T03:17:25.614Z,25.00
2022-11-14T03:18:25.605Z,24.60
2022-11-14T03:19:25.578Z,25.60
2022-11-14T03:20:25.565Z,25.40
2022-11-14T03:21:25.569Z,23.90
2022-11-14T03:22:25.544Z,26.00
2022-11-14T03:23:25.540Z,25.70
2022-11-14T03:24:25.517Z,24.80
2022-11-14T03:25:25.510Z,26.00
2022-11-14T03:26:25.518Z,25.40
2022-11-14T03:27:25.508Z,25.70
2022-11-14T03:28:25.488Z,25.40
2022-11-14T03:29:25.470Z,26.70
2022-11-14T03:30:25.462Z,26.00
2022-11-14T03:31:25.457Z,25.50
2022-11-14T03:32:25.462Z,24.70
2022-11-14T03:33:25.427Z,24.80
2022-11-14T03:34:25.407Z,24.60
2022-11-14T03:35:32.934Z,24.40
2022-11-14T03:36:25.387Z,24.00
2022-11-14T03:37:25.397Z,24.50
2022-11-14T03:38:25.373Z,24.60
2022-11-14T03:39:25.379Z,25.30
2022-11-14T03:40:25.350Z,24.60
2022-11-14T03:41:25.359Z,25.00
2022-11-14T03:42:25.362Z,24.50
2022-11-14T03:43:25.335Z,24.40
2022-11-14T03:44:25.319Z,23.60
2022-11-14T03:45:25.306Z,24.90
2022-11-14T03:46:25.310Z,24.70
2022-11-14T03:47:25.290Z,25.80
2022-11-14T03:48:25.303Z,25.20
2022-11-14T03:49:25.299Z,24.20
2022-11-14T03:50:25.254Z,24.80
2022-11-14T03:51:25.248Z,25.00
2022-11-14T03:52:25.247Z,24.00
2022-11-14T03:53:25.259Z,24.50
2022-11-14T03:54:25.211Z,24.20
2022-11-14T03:55:25.184Z,24.00
2022-11-14T03:56:25.185Z,23.50
2022-11-14T03:57:25.180Z,24.20
2022-11-14T03:58:25.175Z,26.30
2022-11-14T03:59:25.179Z,25.30
2022-11-14T04:00:25.142Z,24.90
2022-11-14T04:01:25.199Z,24.20
2022-11-14T04:02:25.098Z,24.10
2022-11-14T04:03:25.121Z,25.60
2022-11-14T04:04:25.112Z,27.30
2022-11-14T04:05:25.073Z,24.60
2022-11-14T04:06:25.067Z,24.60
2022-11-14T04:07:25.129Z,23.30
2022-11-14T04:08:25.057Z,25.30
2022-11-14T04:09:25.039Z,23.60
2022-11-14T04:10:25.012Z,24.60
2022-11-14T04:11:25.006Z,23.00
2022-11-14T04:12:25.011Z,24.50
2022-11-14T04:13:25.038Z,24.90
2022-11-14T04:14:25.004Z,24.30
2022-11-14T04:15:24.973Z,24.80
2022-11-14T04:16:24.948Z,24.10
2022-11-14T04:17:24.945Z,23.90
2022-11-14T04:18:24.925Z,23.30
2022-11-14T04:19:24.960Z,23.10
2022-11-14T04:20:24.915Z,24.50
2022-11-14T04:21:24.897Z,24.00
2022-11-14T04:22:24.897Z,23.50
2022-11-14T04:23:24.899Z,25.10
2022-11-14T04:24:24.909Z,25.00
2022-11-14T04:25:24.860Z,25.90
2022-11-14T04:26:24.839Z,24.80
2022-11-14T04:27:24.830Z,25.00
2022-11-14T04:28:24.825Z,25.10
2022-11-14T04:29:24.849Z,26.00
2022-11-14T04:30:24.820Z,25.40
2022-11-14T04:31:24.790Z,24.40
2022-11-14T04:32:24.782Z,24.50
2022-11-14T04:33:24.790Z,25.00
2022-11-14T04:34:24.787Z,24.40
2022-11-14T04:35:33.264Z,26.40
2022-11-14T04:36:24.727Z,23.50
2022-11-14T04:37:24.725Z,23.60
2022-11-14T04:38:24.710Z,24.70
2022-11-14T04:39:24.706Z,22.80
2022-11-14T04:40:24.705Z,23.30
2022-11-14T04:41:24.689Z,24.10
2022-11-14T04:42:24.684Z,22.50
2022-11-14T04:43:24.656Z,22.90
2022-11-14T04:44:24.644Z,22.40
2022-11-14T04:45:24.691Z,23.10
2022-11-14T04:46:24.631Z,21.60
2022-11-14T04:47:24.637Z,23.50
2022-11-14T04:48:24.621Z,22.40
2022-11-14T04:49:24.619Z,22.00
2022-11-14T04:50:24.636Z,20.70
2022-11-14T04:51:24.599Z,22.60
2022-11-14T04:52:24.565Z,23.60
2022-11-14T04:53:24.550Z,23.00
2022-11-14T04:54:24.542Z,21.20
2022-11-14T04:55:24.556Z,23.30
2022-11-14T04:56:24.519Z,23.80
2022-11-14T04:57:24.516Z,23.70
2022-11-14T04:58:24.502Z,23.30
2022-11-14T04:59:24.491Z,23.90
2022-11-14T05:00:24.493Z,23.60
2022-11-14T05:01:24.573Z,24.60
2022-11-14T05:02:24.470Z,22.70
2022-11-14T05:03:24.450Z,25.10
2022-11-14T05:04:24.441Z,23.40
2022-11-14T05:05:24.431Z,24.10
2022-11-14T05:06:24.430Z,23.60
2022-11-14T05:07:24.448Z,22.10
2022-11-14T05:08:24.391Z,22.90
2022-11-14T05:09:24.383Z,23.50
2022-11-14T05:10:24.367Z,22.60
2022-11-14T05:11:29.047Z,23.00
2022-11-14T05:12:24.376Z,23.00
2022-11-14T05:13:24.344Z,24.20
2022-11-14T05:14:24.333Z,24.60
2022-11-14T05:15:24.325Z,24.30
2022-11-14T05:16:24.321Z,24.50
2022-11-14T05:17:24.312Z,23.40
2022-11-14T05:18:24.303Z,24.80
2022-11-14T05:19:24.275Z,24.20
2022-11-14T05:20:24.271Z,23.50
2022-11-14T05:21:24.252Z,25.20
2022-11-14T05:22:24.250Z,23.60
2022-11-14T05:23:24.235Z,24.20
2022-11-14T05:24:24.230Z,23.90
2022-11-14T05:25:24.216Z,25.00
2022-11-14T05:26:24.207Z,23.80
2022-11-14T05:27:24.206Z,23.20
2022-11-14T05:28:24.196Z,23.80
2022-11-14T05:29:24.170Z,23.90
2022-11-14T05:30:24.208Z,23.10
2022-11-14T05:31:24.149Z,22.40
2022-11-14T05:32:24.158Z,23.80
2022-11-14T05:33:24.119Z,23.20
2022-11-14T05:34:24.133Z,24.20
2022-11-14T05:35:30.685Z,24.80
2022-11-14T05:36:24.085Z,24.30
2022-11-14T05:37:24.115Z,22.80
2022-11-14T05:38:24.065Z,23.70
2022-11-14T05:39:24.058Z,24.00
2022-11-14T05:40:24.064Z,23.90
2022-11-14T05:41:24.050Z,24.50
2022-11-14T05:42:24.040Z,23.40
2022-11-14T05:43:24.020Z,24.50
2022-11-14T05:44:23.998Z,23.60
2022-11-14T05:45:24.008Z,23.20
2022-11-14T05:46:23.975Z,22.60
2022-11-14T05:47:23.987Z,23.50
2022-11-14T05:48:23.964Z,24.60
2022-11-14T05:49:23.952Z,22.60
2022-11-14T05:50:23.961Z,23.70
2022-11-14T05:51:23.935Z,23.30
2022-11-14T05:52:23.914Z,23.50
2022-11-14T05:53:23.910Z,21.90
2022-11-14T05:54:23.897Z,24.30
2022-11-14T05:55:25.002Z,22.40
2022-11-14T05:56:23.893Z,22.90
2022-11-14T05:57:23.862Z,23.80
2022-11-14T05:58:23.848Z,23.60
2022-11-14T05:59:23.840Z,24.20
2022-11-14T06:00:23.869Z,25.60
2022-11-14T06:01:23.831Z,24.30
2022-11-14T06:02:23.882Z,24.00
2022-11-14T06:03:23.809Z,23.70
2022-11-14T06:04:23.806Z,25.40
2022-11-14T06:05:23.796Z,26.60
2022-11-14T06:06:23.766Z,25.10
2022-11-14T06:07:23.806Z,24.80
2022-11-14T06:08:23.756Z,24.20
2022-11-14T06:09:23.736Z,24.20
2022-11-14T06:10:23.739Z,25.20
2022-11-14T06:11:23.714Z,23.50
2022-11-14T06:12:23.703Z,24.90
2022-11-14T06:13:23.708Z,22.60
2022-11-14T06:14:23.677Z,23.70
2022-11-14T06:15:23.675Z,23.60
2022-11-14T06:16:23.683Z,24.50
2022-11-14T06:17:23.646Z,24.20
2022-11-14T06:18:23.643Z,23.50
2022-11-14T06:19:23.645Z,24.10
2022-11-14T06:20:23.631Z,22.70
2022-11-14T06:21:23.630Z,23.90
2022-11-14T06:22:23.608Z,24.00
2022-11-14T06:23:25.045Z,24.00
2022-11-14T06:24:23.585Z,23.80
2022-11-14T06:25:23.577Z,24.10
2022-11-14T06:26:23.582Z,24.10
2022-11-14T06:27:23.558Z,24.30
2022-11-14T06:28:23.538Z,24.10
2022-11-14T06:29:23.530Z,25.10
2022-11-14T06:30:23.520Z,23.70
2022-11-14T06:31:23.511Z,25.30
2022-11-14T06:32:23.496Z,24.80
2022-11-14T06:33:23.479Z,22.30
2022-11-14T06:34:23.471Z,24.50
2022-11-14T06:35:32.509Z,23.50
2022-11-14T06:36:23.460Z,25.50
2022-11-14T06:37:23.473Z,24.90
2022-11-14T06:38:23.439Z,24.10
2022-11-14T06:39:23.423Z,22.10
2022-11-14T06:40:23.408Z,23.20
2022-11-14T06:41:23.421Z,24.30
2022-11-14T06:42:23.423Z,24.00
2022-11-14T06:43:23.409Z,22.70
2022-11-14T06:44:29.484Z,23.20
2022-11-14T06:45:23.394Z,23.60
2022-11-14T06:46:23.345Z,22.80
2022-11-14T06:47:23.352Z,23.40
2022-11-14T06:48:23.330Z,24.00
2022-11-14T06:49:23.332Z,23.40
2022-11-14T06:50:23.306Z,23.80
2022-11-14T06:51:23.296Z,22.70
2022-11-14T06:52:23.343Z,23.10
2022-11-14T06:53:23.315Z,23.80
2022-11-14T06:54:23.262Z,23.10
2022-11-14T06:55:25.496Z,22.40
2022-11-14T06:56:23.248Z,23.30
2022-11-14T06:57:23.911Z,22.50
2022-11-14T06:58:23.237Z,22.50
2022-11-14T06:59:23.214Z,21.80
2022-11-14T07:00:23.200Z,22.10
2022-11-14T07:01:23.193Z,20.80
2022-11-14T07:02:23.203Z,21.50
2022-11-14T07:03:23.261Z,22.00
2022-11-14T07:04:23.170Z,22.20
2022-11-14T07:05:23.163Z,21.30
2022-11-14T07:06:23.136Z,21.00
2022-11-14T07:07:23.186Z,21.90
2022-11-14T07:08:23.157Z,21.70
2022-11-14T07:09:23.101Z,21.50
2022-11-14T07:10:23.089Z,20.50
2022-11-14T07:11:23.293Z,21.60
2022-11-14T07:12:23.087Z,21.10
2022-11-14T07:13:23.097Z,21.40
2022-11-14T07:14:23.068Z,20.90
2022-11-14T07:15:23.070Z,22.40
2022-11-14T07:16:23.037Z,21.60
2022-11-14T07:17:26.017Z,22.40
2022-11-14T07:18:23.037Z,21.70
2022-11-14T07:19:23.006Z,21.30
2022-11-14T07:20:22.995Z,22.70
2022-11-14T07:21:22.984Z,20.60
2022-11-14T07:22:22.985Z,22.20
2022-11-14T07:23:23.245Z,22.10
2022-11-14T07:24:22.950Z,21.80
2022-11-14T07:25:22.945Z,22.20
2022-11-14T07:26:22.978Z,21.90
2022-11-14T07:27:22.982Z,21.70
2022-11-14T07:28:22.917Z,22.10
2022-11-14T07:29:22.913Z,21.90
2022-11-14T07:30:22.898Z,21.10
2022-11-14T07:31:22.876Z,21.30
2022-11-14T07:32:22.862Z,21.20
2022-11-14T07:33:22.860Z,20.10
2022-11-14T07:34:22.884Z,20.90
2022-11-14T07:35:31.351Z,22.20
2022-11-14T07:36:22.853Z,21.10
2022-11-14T07:37:22.805Z,21.00
2022-11-14T07:38:22.801Z,20.60
2022-11-14T07:39:22.801Z,21.50
2022-11-14T07:40:22.777Z,20.60
2022-11-14T07:41:22.764Z,21.20
2022-11-14T07:42:22.769Z,20.90
2022-11-14T07:43:22.911Z,21.90
2022-11-14T07:44:22.754Z,21.10
2022-11-14T07:45:22.721Z,21.50
2022-11-14T07:46:22.723Z,22.10
2022-11-14T07:47:22.718Z,21.00
2022-11-14T07:48:22.696Z,21.70
2022-11-14T07:49:22.705Z,22.60
2022-11-14T07:50:22.767Z,20.30
2022-11-14T07:51:22.667Z,20.70
2022-11-14T07:52:22.674Z,21.50
2022-11-14T07:53:22.629Z,21.40
2022-11-14T07:54:22.642Z,20.80
2022-11-14T07:55:22.619Z,20.60
2022-11-14T07:56:22.621Z,20.90
2022-11-14T07:57:22.604Z,21.60
2022-11-14T07:58:22.610Z,21.30
2022-11-14T07:59:22.602Z,21.00
2022-11-14T08:00:22.626Z,21.30
2022-11-14T08:01:22.611Z,20.50
2022-11-14T08:02:22.565Z,20.20
2022-11-14T08:03:22.530Z,22.30
2022-11-14T08:04:22.542Z,21.80
2022-11-14T08:05:22.504Z,20.40
2022-11-14T08:06:22.520Z,21.00
2022-11-14T08:07:22.491Z,20.70
2022-11-14T08:08:22.485Z,22.60
2022-11-14T08:09:22.475Z,20.50
2022-11-14T08:10:22.465Z,20.60
2022-11-14T08:11:34.584Z,19.50
2022-11-14T08:12:22.474Z,21.20
2022-11-14T08:13:32.313Z,22.10
2022-11-14T08:14:22.429Z,20.70
2022-11-14T08:15:22.411Z,21.20
2022-11-14T08:16:22.392Z,19.80
2022-11-14T08:17:22.450Z,20.10
2022-11-14T08:18:22.367Z,20.30
2022-11-14T08:19:22.351Z,21.10
2022-11-14T08:20:22.354Z,20.80
2022-11-14T08:21:22.331Z,21.20
2022-11-14T08:22:22.335Z,20.30
2022-11-14T08:23:22.307Z,20.40
2022-11-14T08:24:22.480Z,19.20
2022-11-14T08:25:22.285Z,19.90
2022-11-14T08:26:22.281Z,20.00
2022-11-14T08:27:23.546Z,20.10
2022-11-14T08:28:22.537Z,19.80
2022-11-14T08:29:22.253Z,20.30
2022-11-14T08:30:22.242Z,19.40
2022-11-14T08:31:22.235Z,19.20
2022-11-14T08:32:22.243Z,20.30
2022-11-14T08:33:22.199Z,20.20
2022-11-14T08:34:22.205Z,18.10
2022-11-14T08:35:29.685Z,19.80
2022-11-14T08:36:22.171Z,19.70
2022-11-14T08:37:22.188Z,19.20
2022-11-14T08:38:22.152Z,18.70
2022-11-14T08:39:22.231Z,18.90
2022-11-14T08:40:22.125Z,18.20
2022-11-14T08:41:22.109Z,18.50
2022-11-14T08:42:22.133Z,18.20
2022-11-14T08:43:22.091Z,18.50
2022-11-14T08:44:22.124Z,19.40
2022-11-14T08:45:22.073Z,19.40
2022-11-14T08:46:22.060Z,19.00
2022-11-14T08:47:22.040Z,19.20
2022-11-14T08:48:22.058Z,19.40
2022-11-14T08:49:22.172Z,19.20
2022-11-14T08:50:22.036Z,17.90
2022-11-14T08:51:22.006Z,18.10
2022-11-14T08:52:22.003Z,18.50
2022-11-14T08:53:21.982Z,18.90
2022-11-14T08:54:21.968Z,17.90
2022-11-14T08:55:21.975Z,18.80
2022-11-14T08:56:21.972Z,17.10
2022-11-14T08:57:21.945Z,18.60
2022-11-14T08:58:21.950Z,18.60
2022-11-14T08:59:21.961Z,19.20
2022-11-14T09:00:21.925Z,18.20
2022-11-14T09:01:21.900Z,18.90
2022-11-14T09:02:21.883Z,17.30
2022-11-14T09:03:21.951Z,18.30
2022-11-14T09:04:21.955Z,19.00
2022-11-14T09:05:21.844Z,16.70
2022-11-14T09:06:21.847Z,17.70
2022-11-14T09:07:21.929Z,16.50
2022-11-14T09:08:21.828Z,17.40
2022-11-14T09:09:21.883Z,17.20
2022-11-14T09:10:21.807Z,17.00
2022-11-14T09:11:21.809Z,17.00
2022-11-14T09:12:21.781Z,17.50
2022-11-14T09:13:21.759Z,16.70
2022-11-14T09:14:21.757Z,17.10
2022-11-14T09:15:21.808Z,16.60
2022-11-14T09:16:21.753Z,17.40
2022-11-14T09:17:21.721Z,17.90
2022-11-14T09:18:21.708Z,16.30
2022-11-14T09:19:21.803Z,17.80
2022-11-14T09:20:22.560Z,15.70
2022-11-14T09:21:21.698Z,17.20
2022-11-14T09:22:21.684Z,16.10
2022-11-14T09:23:21.667Z,17.20
2022-11-14T09:24:21.675Z,16.50
2022-11-14T09:25:21.725Z,17.00
2022-11-14T09:26:21.636Z,17.40
2022-11-14T09:27:21.624Z,17.60
2022-11-14T09:28:21.622Z,16.50
2022-11-14T09:29:21.717Z,17.30
2022-11-14T09:30:21.589Z,17.60
2022-11-14T09:31:21.587Z,17.20
2022-11-14T09:32:21.563Z,16.00
2022-11-14T09:33:21.560Z,16.50
2022-11-14T09:34:21.541Z,16.70
2022-11-14T09:35:21.576Z,15.80
2022-11-14T09:36:21.577Z,15.00
2022-11-14T09:37:21.511Z,16.80
2022-11-14T09:38:21.495Z,14.70
2022-11-14T09:39:21.559Z,16.10
2022-11-14T09:40:21.476Z,15.80
2022-11-14T09:41:21.495Z,15.90
2022-11-14T09:42:21.468Z,15.60
2022-11-14T09:43:21.438Z,15.20
2022-11-14T09:44:21.434Z,15.90
2022-11-14T09:45:21.423Z,16.00
2022-11-14T09:46:21.448Z,15.20
2022-11-14T09:47:21.426Z,15.20
2022-11-14T09:48:21.401Z,15.40
2022-11-14T09:49:21.457Z,15.50
2022-11-14T09:50:25.636Z,15.00
2022-11-14T09:51:21.377Z,15.70
2022-11-14T09:52:22.076Z,15.00
2022-11-14T09:53:21.335Z,14.60
2022-11-14T09:54:21.345Z,14.30
2022-11-14T09:55:21.311Z,15.30
2022-11-14T09:56:21.321Z,15.20
2022-11-14T09:57:21.295Z,15.80
2022-11-14T09:58:21.290Z,15.00
2022-11-14T09:59:21.391Z,15.50
2022-11-14T10:00:21.350Z,15.80
2022-11-14T10:01:21.272Z,16.10
2022-11-14T10:02:21.319Z,16.20
2022-11-14T10:03:21.225Z,15.90
2022-11-14T10:04:21.212Z,16.00
2022-11-14T10:05:21.203Z,17.60
2022-11-14T10:06:21.232Z,17.20
2022-11-14T10:07:21.289Z,25.20
2022-11-14T10:08:21.189Z,24.80
2022-11-14T10:09:22.205Z,25.80
2022-11-14T10:10:21.162Z,23.90
2022-11-14T10:11:21.144Z,23.80
2022-11-14T10:12:21.151Z,24.70
2022-11-14T10:13:21.113Z,26.50
2022-11-14T10:14:21.104Z,25.90
2022-11-14T10:15:21.102Z,24.30
2022-11-14T10:16:21.092Z,24.40
2022-11-14T10:17:21.075Z,24.50
2022-11-14T10:18:21.149Z,24.30
2022-11-14T10:19:21.072Z,23.60
2022-11-14T10:20:21.063Z,25.00
2022-11-14T10:21:21.033Z,24.40
2022-11-14T10:22:21.038Z,23.60
2022-11-14T10:23:21.053Z,23.70
2022-11-14T10:24:21.015Z,23.70
2022-11-14T10:25:20.985Z,21.90
2022-11-14T10:26:20.973Z,23.00
2022-11-14T10:27:20.970Z,22.80
2022-11-14T10:28:20.967Z,22.90
2022-11-14T10:29:20.977Z,22.20
2022-11-14T10:30:20.954Z,22.10
2022-11-14T10:31:20.923Z,23.00
2022-11-14T10:32:20.925Z,22.40
2022-11-14T10:33:20.907Z,22.70
2022-11-14T10:34:20.906Z,22.30
2022-11-14T10:35:20.898Z,22.60
2022-11-14T10:36:20.876Z,23.40
2022-11-14T10:37:20.882Z,22.50
2022-11-14T10:38:20.845Z,22.20
2022-11-14T10:39:20.983Z,22.80
2022-11-14T10:40:20.847Z,22.20
2022-11-14T10:41:35.097Z,22.50
2022-11-14T10:42:20.831Z,21.90
2022-11-14T10:43:20.802Z,21.90
2022-11-14T10:44:20.867Z,22.20
2022-11-14T10:45:20.781Z,22.00
2022-11-14T10:46:20.773Z,21.40
2022-11-14T10:47:20.759Z,21.80
2022-11-14T10:48:20.751Z,22.70
2022-11-14T10:49:20.752Z,22.30
2022-11-14T10:50:20.738Z,21.90
2022-11-14T10:51:20.720Z,22.80
2022-11-14T10:52:20.737Z,23.00
2022-11-14T10:53:20.709Z,22.70
2022-11-14T10:54:20.742Z,23.30
2022-11-14T10:55:24.850Z,22.70
2022-11-14T10:56:20.696Z,22.50
2022-11-14T10:57:20.651Z,22.50
2022-11-14T10:58:20.633Z,22.70
2022-11-14T10:59:20.638Z,22.20
2022-11-14T11:00:20.613Z,22.80
2022-11-14T11:01:20.791Z,22.60
2022-11-14T11:02:20.599Z,22.20
2022-11-14T11:03:20.620Z,22.70
2022-11-14T11:04:20.718Z,22.80
2022-11-14T11:05:20.572Z,22.80
2022-11-14T11:06:20.548Z,23.80
2022-11-14T11:07:20.585Z,23.60
2022-11-14T11:08:42.008Z,20.90
2022-11-14T11:09:20.589Z,22.80
2022-11-14T11:10:20.511Z,23.10
2022-11-14T11:11:20.489Z,22.40
2022-11-14T11:12:21.600Z,20.30
2022-11-14T11:13:20.477Z,22.30
2022-11-14T11:14:20.471Z,22.20
2022-11-14T11:15:20.479Z,21.70
2022-11-14T11:16:20.454Z,22.90
2022-11-14T11:17:20.477Z,22.50
2022-11-14T11:18:20.426Z,22.00
2022-11-14T11:19:20.415Z,21.60
2022-11-14T11:20:20.392Z,21.60
2022-11-14T11:21:20.468Z,23.60
2022-11-14T11:22:20.410Z,22.40
2022-11-14T11:23:20.373Z,22.80
2022-11-14T11:24:20.354Z,22.20
2022-11-14T11:25:20.348Z,20.90
2022-11-14T11:26:20.330Z,21.60
2022-11-14T11:27:20.389Z,21.70
2022-11-14T11:28:20.308Z,20.90
2022-11-14T11:29:20.295Z,22.60
2022-11-14T11:30:20.290Z,21.80
2022-11-14T11:31:20.275Z,21.70
2022-11-14T11:32:20.282Z,21.60
2022-11-14T11:33:20.286Z,20.80
2022-11-14T11:34:20.245Z,21.90
2022-11-14T11:35:21.002Z,22.90
2022-11-14T11:36:20.227Z,21.60
2022-11-14T11:37:20.306Z,22.90
2022-11-14T11:38:20.214Z,22.00
2022-11-14T11:39:20.195Z,21.10
2022-11-14T11:40:20.171Z,21.50
2022-11-14T11:42:02.316Z,20.80
2022-11-14T11:42:20.174Z,22.40
2022-11-14T11:44:20.152Z,22.20
2022-11-14T11:45:20.127Z,22.40
2022-11-14T11:46:20.114Z,22.80
2022-11-14T11:47:20.124Z,22.20
2022-11-14T11:48:20.115Z,23.90
2022-11-14T11:49:20.085Z,21.80
2022-11-14T11:50:20.089Z,22.50
2022-11-14T11:51:20.094Z,22.40
2022-11-14T11:52:20.057Z,22.00
2022-11-14T11:53:20.091Z,20.60
2022-11-14T11:54:20.033Z,21.60
2022-11-14T11:55:20.025Z,20.50
2022-11-14T11:56:20.017Z,21.10
2022-11-14T11:57:21.954Z,21.90
2022-11-14T11:58:20.019Z,20.80
2022-11-14T11:59:19.989Z,20.90
2022-11-14T12:00:19.968Z,21.60
2022-11-14T12:01:19.966Z,21.90
2022-11-14T12:02:20.039Z,19.80
2022-11-14T12:03:20.576Z,21.30
2022-11-14T12:04:19.949Z,20.70
2022-11-14T12:05:19.905Z,20.10
2022-11-14T12:06:19.912Z,21.20
2022-11-14T12:07:19.996Z,19.70
2022-11-14T12:08:21.560Z,19.70
2022-11-14T12:09:19.883Z,19.50
2022-11-14T12:10:19.867Z,19.50
2022-11-14T12:11:19.850Z,19.60
2022-11-14T12:12:19.833Z,19.70
2022-11-14T12:13:19.831Z,19.60
2022-11-14T12:14:19.817Z,19.90
2022-11-14T12:15:19.829Z,19.10
2022-11-14T12:16:19.818Z,18.90
2022-11-14T12:17:19.815Z,17.60
2022-11-14T12:18:19.790Z,18.60
2022-11-14T12:19:19.760Z,19.90
2022-11-14T12:20:20.160Z,19.50
2022-11-14T12:21:19.780Z,20.30
2022-11-14T12:22:19.740Z,18.00
2022-11-14T12:23:19.734Z,18.60
2022-11-14T12:24:19.699Z,16.70
2022-11-14T12:25:19.740Z,16.90
2022-11-14T12:26:19.681Z,16.70
2022-11-14T12:27:19.750Z,17.50
2022-11-14T12:28:19.677Z,16.40
2022-11-14T12:29:24.040Z,17.80
2022-11-14T12:30:19.644Z,17.40
2022-11-14T12:31:19.626Z,17.30
2022-11-14T12:32:19.659Z,17.40
2022-11-14T12:33:19.607Z,16.60
2022-11-14T12:34:19.640Z,15.20
2022-11-14T12:35:19.651Z,16.10
2022-11-14T12:36:19.612Z,15.40
2022-11-14T12:37:19.644Z,14.20
2022-11-14T12:38:19.548Z,14.30
2022-11-14T12:39:19.567Z,14.10
2022-11-14T12:40:19.534Z,15.30
2022-11-14T12:41:19.514Z,15.50
2022-11-14T12:42:19.511Z,15.60
2022-11-14T12:43:19.506Z,14.50
2022-11-14T12:44:19.514Z,14.60
2022-11-14T12:45:19.474Z,15.10
2022-11-14T12:46:19.466Z,14.20
2022-11-14T12:47:19.479Z,15.10
2022-11-14T12:48:19.439Z,14.60
2022-11-14T12:49:19.443Z,16.00
2022-11-14T12:50:19.424Z,16.00
2022-11-14T12:51:19.475Z,15.60
2022-11-14T12:52:19.417Z,13.40
2022-11-14T12:53:19.422Z,14.80